Time;durP1;ratioP1;P1;durP2;ratioP2;P2;SDS_P1;SDS_P2;PMS_P1;PMS_P2;Temp;Humidity;BMP_temperature;BMP_pressure;BME280_temperature;BME280_humidity;BME280_pressure;Samples;Min_cycle;Max_cycle;Signal;HPM_P1;HPM_P2
2023/08/30 00:00:37;;;;;;;9.87;6.20;;;12.70;99.90;;;;;;5036659;28;20220;-65
2023/08/30 00:03:03;;;;;;;8.97;6.43;;;12.70;99.90;;;;;;5042494;28;20301;-66
2023/08/30 00:05:28;;;;;;;10.70;6.83;;;12.60;99.90;;;;;;5045381;28;20220;-66
2023/08/30 00:07:54;;;;;;;14.80;7.20;;;12.60;99.90;;;;;;5043095;28;20179;-66
2023/08/30 00:10:20;;;;;;;12.53;7.03;;;12.70;99.90;;;;;;5036014;28;20217;-66
2023/08/30 00:12:45;;;;;;;10.00;6.40;;;12.70;99.90;;;;;;5041789;28;20193;-66
2023/08/30 00:15:11;;;;;;;13.63;7.83;;;12.70;99.90;;;;;;5045113;28;20182;-66
2023/08/30 00:17:37;;;;;;;9.57;6.23;;;12.60;99.90;;;;;;5049237;28;20189;-66
2023/08/30 00:20:03;;;;;;;11.33;7.20;;;12.70;99.90;;;;;;5046153;28;20189;-66
2023/08/30 00:22:29;;;;;;;12.50;7.40;;;12.70;99.90;;;;;;5038172;28;20209;-66
2023/08/30 00:24:54;;;;;;;11.27;7.00;;;12.70;99.90;;;;;;5049145;28;20684;-66
2023/08/30 00:27:22;;;;;;;11.90;8.30;;;12.70;99.90;;;;;;5035823;28;20221;-66
2023/08/30 00:29:48;;;;;;;13.57;7.53;;;12.70;99.90;;;;;;5042402;28;20182;-66
2023/08/30 00:32:14;;;;;;;9.03;6.63;;;12.70;99.90;;;;;;5047288;28;20794;-66
2023/08/30 00:34:39;;;;;;;11.97;7.63;;;12.70;99.90;;;;;;5040581;28;20194;-66
2023/08/30 00:37:05;;;;;;;10.83;6.73;;;12.70;99.90;;;;;;5054781;28;20189;-66
2023/08/30 00:39:30;;;;;;;10.30;7.20;;;12.70;99.90;;;;;;5041005;28;20193;-66
2023/08/30 00:41:56;;;;;;;10.37;7.13;;;12.70;99.90;;;;;;5054856;28;20181;-66
2023/08/30 00:44:21;;;;;;;10.70;7.17;;;12.70;99.90;;;;;;5041374;28;20261;-66
2023/08/30 00:46:47;;;;;;;12.80;7.97;;;12.70;99.90;;;;;;5035781;28;20323;-66
2023/08/30 00:49:13;;;;;;;13.10;7.67;;;12.70;99.90;;;;;;5048943;28;20209;-66
2023/08/30 00:51:39;;;;;;;11.20;7.57;;;12.70;99.90;;;;;;5054226;28;20181;-66
2023/08/30 00:54:06;;;;;;;13.50;8.07;;;12.60;99.90;;;;;;5039729;28;20452;-66
2023/08/30 00:56:33;;;;;;;13.57;8.73;;;12.70;99.90;;;;;;5038234;28;20838;-66
2023/08/30 00:58:59;;;;;;;13.93;9.17;;;12.70;99.90;;;;;;5031625;28;20977;-66
2023/08/30 01:01:25;;;;;;;17.57;9.70;;;12.70;99.90;;;;;;5045136;28;20421;-66
2023/08/30 01:03:51;;;;;;;14.27;9.33;;;12.60;99.90;;;;;;5035843;28;20420;-66
2023/08/30 01:06:17;;;;;;;21.53;8.20;;;12.60;99.90;;;;;;5053864;28;20542;-66
2023/08/30 01:08:43;;;;;;;17.13;9.30;;;12.50;99.90;;;;;;5044918;28;20557;-66
2023/08/30 01:11:17;;;;;;;15.10;8.70;;;12.60;99.90;;;;;;5036509;28;20183;-66
2023/08/30 01:14:04;;;;;;;16.77;9.73;;;12.60;99.90;;;;;;5043581;28;20416;-66
2023/08/30 01:16:31;;;;;;;15.37;7.63;;;12.60;99.90;;;;;;5050881;28;20457;-66
2023/08/30 01:19:04;;;;;;;11.37;7.27;;;12.60;99.90;;;;;;5052920;28;20420;-66
2023/08/30 01:22:18;;;;;;;13.70;7.67;;;12.50;99.90;;;;;;5041809;28;20476;-66
2023/08/30 01:25:22;;;;;;;13.77;7.83;;;12.50;99.90;;;;;;5034405;28;20519;-66
2023/08/30 01:27:50;;;;;;;11.90;6.60;;;12.50;99.90;;;;;;5010270;28;20466;-66
2023/08/30 01:30:17;;;;;;;10.43;7.17;;;12.50;99.90;;;;;;5038500;28;20478;-66
2023/08/30 01:32:44;;;;;;;12.67;8.17;;;12.50;99.90;;;;;;5045006;28;20420;-66
2023/08/30 01:35:10;;;;;;;17.77;8.07;;;12.40;99.90;;;;;;5047793;28;20416;-66
2023/08/30 01:37:37;;;;;;;15.03;7.90;;;12.40;99.90;;;;;;5045700;28;20428;-66
2023/08/30 01:40:05;;;;;;;12.57;8.13;;;12.30;99.90;;;;;;5048915;28;20891;-66
2023/08/30 01:42:32;;;;;;;12.60;6.73;;;12.40;99.90;;;;;;5037238;28;20436;-66
2023/08/30 01:44:59;;;;;;;12.50;7.20;;;12.30;99.90;;;;;;5039189;28;20460;-65
2023/08/30 01:47:27;;;;;;;9.87;6.10;;;12.30;99.90;;;;;;5039477;28;20457;-65
2023/08/30 01:49:55;;;;;;;13.80;7.87;;;12.30;99.90;;;;;;5027237;28;20450;-65
2023/08/30 01:52:22;;;;;;;12.70;7.40;;;12.30;99.90;;;;;;5043081;28;20425;-65
2023/08/30 01:54:50;;;;;;;13.23;8.40;;;12.20;99.90;;;;;;5042320;28;20419;-65
2023/08/30 01:57:16;;;;;;;13.80;8.03;;;12.20;99.90;;;;;;5026426;28;20417;-65
2023/08/30 01:59:41;;;;;;;12.57;7.53;;;12.20;99.90;;;;;;5043656;28;20940;-65
2023/08/30 02:02:07;;;;;;;11.57;7.03;;;12.10;99.90;;;;;;5052428;28;20182;-65
2023/08/30 02:04:33;;;;;;;9.73;6.97;;;12.10;99.90;;;;;;5049761;28;20316;-65
2023/08/30 02:07:02;;;;;;;11.33;6.40;;;12.10;99.90;;;;;;5052938;28;20231;-65
2023/08/30 02:09:39;;;;;;;13.33;8.07;;;12.10;99.90;;;;;;5052533;28;20185;-65
2023/08/30 02:12:14;;;;;;;12.70;7.57;;;12.10;99.90;;;;;;5048056;28;20408;-65
2023/08/30 02:14:48;;;;;;;10.27;6.20;;;12.10;99.90;;;;;;5027991;28;20432;-65
2023/08/30 02:17:17;;;;;;;12.17;6.93;;;12.00;99.90;;;;;;5031893;28;20474;-65
2023/08/30 02:19:44;;;;;;;13.37;8.20;;;12.00;99.90;;;;;;5044385;28;20413;-65
2023/08/30 02:22:10;;;;;;;11.80;7.47;;;12.00;99.90;;;;;;5046923;28;20417;-65
2023/08/30 02:24:36;;;;;;;12.40;7.50;;;12.10;99.90;;;;;;5020392;28;20462;-65
2023/08/30 02:27:01;;;;;;;12.37;7.17;;;12.00;99.90;;;;;;5033402;28;20423;-65
2023/08/30 02:29:27;;;;;;;12.77;7.97;;;12.00;99.90;;;;;;5036191;28;20232;-65
2023/08/30 02:31:53;;;;;;;10.10;6.80;;;11.90;99.90;;;;;;5032197;28;20178;-65
2023/08/30 02:34:18;;;;;;;11.17;6.43;;;11.90;99.90;;;;;;5035634;28;20191;-65
2023/08/30 02:36:44;;;;;;;10.97;6.40;;;11.90;99.90;;;;;;5050961;28;20262;-65
2023/08/30 02:39:14;;;;;;;13.20;7.23;;;11.90;99.90;;;;;;5052116;28;20189;-65
2023/08/30 02:41:40;;;;;;;16.67;7.53;;;11.90;99.90;;;;;;5040701;28;20591;-65
2023/08/30 02:44:07;;;;;;;8.90;6.77;;;11.80;99.90;;;;;;5032880;28;20509;-65
2023/08/30 02:46:33;;;;;;;11.57;6.90;;;11.80;99.90;;;;;;5044461;28;20788;-65
2023/08/30 02:48:59;;;;;;;10.77;6.27;;;11.70;99.90;;;;;;5045398;28;20426;-65
2023/08/30 02:51:24;;;;;;;16.10;6.90;;;11.70;99.90;;;;;;5050877;28;20523;-65
2023/08/30 02:53:50;;;;;;;8.67;5.10;;;11.70;99.90;;;;;;5033908;28;20278;-65
2023/08/30 02:56:16;;;;;;;10.03;6.80;;;11.60;99.90;;;;;;5059066;28;20301;-65
2023/08/30 02:58:42;;;;;;;12.00;7.27;;;11.60;99.90;;;;;;5052175;28;20186;-65
2023/08/30 03:01:07;;;;;;;9.40;5.50;;;11.60;99.90;;;;;;5045763;28;20487;-65
2023/08/30 03:03:33;;;;;;;12.57;7.00;;;11.60;99.90;;;;;;5043972;28;20851;-64
2023/08/30 03:05:58;;;;;;;10.80;6.77;;;11.60;99.90;;;;;;5036894;28;20251;-65
2023/08/30 03:08:24;;;;;;;13.17;7.33;;;11.60;99.90;;;;;;5044061;28;20205;-65
2023/08/30 03:10:49;;;;;;;13.57;7.23;;;11.70;99.90;;;;;;5051024;28;20185;-65
2023/08/30 03:13:15;;;;;;;13.83;8.00;;;11.70;99.90;;;;;;5047518;28;20179;-65
2023/08/30 03:15:41;;;;;;;13.03;6.50;;;11.70;99.90;;;;;;5035625;28;20209;-65
2023/08/30 03:18:06;;;;;;;11.03;6.97;;;11.70;99.90;;;;;;5031299;28;20301;-65
2023/08/30 03:20:32;;;;;;;21.43;8.40;;;11.80;99.90;;;;;;5034792;28;20197;-65
2023/08/30 03:22:58;;;;;;;10.83;6.63;;;11.80;99.90;;;;;;5043680;28;20641;-65
2023/08/30 03:25:24;;;;;;;9.77;6.73;;;11.80;99.90;;;;;;5037133;28;20635;-65
2023/08/30 03:27:50;;;;;;;12.50;7.10;;;11.80;99.90;;;;;;5030082;28;20693;-65
2023/08/30 03:30:16;;;;;;;12.03;6.10;;;11.80;99.90;;;;;;5031664;28;20464;-65
2023/08/30 03:32:41;;;;;;;13.70;6.63;;;11.80;99.90;;;;;;5033501;28;20194;-65
2023/08/30 03:35:08;;;;;;;9.23;5.83;;;11.80;99.90;;;;;;5049447;28;20185;-65
2023/08/30 03:37:33;;;;;;;9.87;6.73;;;11.70;99.90;;;;;;5028157;28;20622;-65
2023/08/30 03:39:59;;;;;;;10.40;6.43;;;11.70;99.90;;;;;;5048348;28;20436;-65
2023/08/30 03:42:25;;;;;;;10.17;6.53;;;11.70;99.90;;;;;;5045529;28;20221;-65
2023/08/30 03:44:50;;;;;;;10.10;5.73;;;11.70;99.90;;;;;;5038928;28;20209;-65
2023/08/30 03:47:16;;;;;;;11.40;7.00;;;11.70;99.90;;;;;;5051237;28;20173;-65
2023/08/30 03:49:43;;;;;;;10.10;5.60;;;11.70;99.90;;;;;;5051262;28;20206;-65
2023/08/30 03:52:09;;;;;;;10.20;6.30;;;11.80;99.90;;;;;;5047622;28;20227;-65
2023/08/30 03:54:34;;;;;;;10.43;6.20;;;11.60;99.90;;;;;;5035652;28;20752;-65
2023/08/30 03:57:00;;;;;;;7.20;5.27;;;11.60;99.90;;;;;;5042414;28;20182;-65
2023/08/30 03:59:27;;;;;;;11.33;6.90;;;11.50;99.90;;;;;;5039570;28;20194;-65
2023/08/30 04:01:53;;;;;;;11.10;6.57;;;11.70;99.90;;;;;;5042618;28;20179;-65
2023/08/30 04:04:18;;;;;;;10.57;5.90;;;11.60;99.90;;;;;;5041647;28;20797;-65
2023/08/30 04:06:44;;;;;;;10.27;6.30;;;11.70;99.90;;;;;;5049567;28;20185;-65
2023/08/30 04:09:10;;;;;;;12.17;7.13;;;11.70;99.90;;;;;;5048785;28;20209;-65
2023/08/30 04:11:35;;;;;;;13.23;7.47;;;11.70;99.90;;;;;;5044958;28;20193;-65
2023/08/30 04:14:02;;;;;;;13.13;7.47;;;11.70;99.90;;;;;;5037226;28;20189;-65
2023/08/30 04:16:27;;;;;;;13.57;7.53;;;11.70;99.90;;;;;;5042927;28;20188;-65
2023/08/30 04:18:54;;;;;;;13.73;8.57;;;11.80;99.90;;;;;;5050788;28;20420;-65
2023/08/30 04:21:19;;;;;;;12.40;7.60;;;11.80;99.90;;;;;;5050921;28;20189;-65
2023/08/30 04:23:45;;;;;;;14.70;7.70;;;11.80;99.90;;;;;;5033998;28;20428;-65
2023/08/30 04:26:11;;;;;;;11.23;6.83;;;11.80;99.90;;;;;;5032770;28;20682;-65
2023/08/30 04:28:36;;;;;;;11.20;7.63;;;11.80;99.90;;;;;;5035707;28;20243;-65
2023/08/30 04:31:02;;;;;;;12.73;8.10;;;11.80;99.90;;;;;;5042916;28;20185;-65
2023/08/30 04:33:27;;;;;;;12.20;6.67;;;11.80;99.90;;;;;;5050520;28;20177;-65
2023/08/30 04:35:54;;;;;;;14.00;7.83;;;11.90;99.90;;;;;;5038335;28;20544;-65
2023/08/30 04:38:20;;;;;;;12.57;6.37;;;11.90;99.90;;;;;;5039676;28;20205;-65
2023/08/30 04:40:49;;;;;;;13.70;7.33;;;11.90;99.90;;;;;;5033196;28;20864;-65
2023/08/30 04:43:15;;;;;;;14.03;7.63;;;11.80;99.90;;;;;;5045100;28;20432;-65
2023/08/30 04:45:40;;;;;;;14.93;6.40;;;11.70;99.90;;;;;;5029025;28;20476;-65
2023/08/30 04:48:07;;;;;;;13.47;7.57;;;11.80;99.90;;;;;;5036313;28;20796;-65
2023/08/30 04:50:32;;;;;;;13.03;7.20;;;11.80;99.90;;;;;;5034551;28;20267;-65
2023/08/30 04:52:58;;;;;;;12.30;7.60;;;11.80;99.90;;;;;;5048534;28;20471;-65
2023/08/30 04:55:25;;;;;;;11.97;7.70;;;11.80;99.90;;;;;;5036314;28;20633;-65
2023/08/30 04:57:50;;;;;;;14.40;7.83;;;11.80;99.90;;;;;;5048395;28;20785;-64
2023/08/30 05:00:17;;;;;;;11.37;6.93;;;11.80;99.90;;;;;;5029412;28;20491;-64
2023/08/30 05:02:43;;;;;;;9.77;6.97;;;11.80;99.90;;;;;;5036541;28;20200;-64
2023/08/30 05:05:09;;;;;;;11.27;6.40;;;11.90;99.90;;;;;;5039280;28;20464;-64
2023/08/30 05:07:35;;;;;;;11.63;6.93;;;11.80;99.90;;;;;;5040986;28;20787;-64
2023/08/30 05:10:01;;;;;;;10.23;6.10;;;11.80;99.90;;;;;;5046630;28;20903;-64
2023/08/30 05:12:27;;;;;;;11.80;6.97;;;11.80;99.90;;;;;;5053881;28;20304;-65
2023/08/30 05:14:52;;;;;;;11.00;6.30;;;11.90;99.90;;;;;;5033650;28;20471;-65
2023/08/30 05:17:18;;;;;;;10.07;6.20;;;11.90;99.90;;;;;;5038318;28;20193;-65
2023/08/30 05:19:44;;;;;;;9.70;6.03;;;11.90;99.90;;;;;;5046206;28;20182;-65
2023/08/30 05:22:09;;;;;;;9.90;5.80;;;11.90;99.90;;;;;;5053506;28;20622;-65
2023/08/30 05:24:35;;;;;;;8.20;5.23;;;11.90;99.90;;;;;;5049821;28;20191;-65
2023/08/30 05:27:02;;;;;;;11.10;5.77;;;12.00;99.90;;;;;;5035684;28;20642;-65
2023/08/30 05:29:28;;;;;;;9.73;6.37;;;12.10;99.90;;;;;;5045580;28;20246;-65
2023/08/30 05:31:54;;;;;;;10.40;6.43;;;12.10;99.90;;;;;;5051890;28;20890;-65
2023/08/30 05:34:19;;;;;;;11.10;6.73;;;12.10;99.90;;;;;;5044973;28;20182;-65
2023/08/30 05:36:45;;;;;;;8.93;5.77;;;12.20;99.90;;;;;;5047067;28;20183;-65
2023/08/30 05:39:10;;;;;;;9.27;6.10;;;12.20;99.90;;;;;;5025953;28;20204;-65
2023/08/30 05:41:36;;;;;;;9.40;5.90;;;12.20;99.90;;;;;;5051542;28;20205;-65
2023/08/30 05:44:02;;;;;;;10.90;6.13;;;12.20;99.90;;;;;;5042655;28;20232;-65
2023/08/30 05:46:28;;;;;;;9.30;5.50;;;12.20;99.90;;;;;;5050264;28;20279;-65
2023/08/30 05:48:54;;;;;;;8.90;5.70;;;12.30;99.90;;;;;;5032487;28;20472;-65
2023/08/30 05:51:20;;;;;;;9.03;6.17;;;12.30;99.90;;;;;;5051118;28;20326;-65
2023/08/30 05:53:45;;;;;;;11.17;6.50;;;12.30;99.90;;;;;;5036362;28;20437;-65
2023/08/30 05:56:11;;;;;;;8.00;5.57;;;12.30;99.90;;;;;;5039770;28;20233;-65
2023/08/30 05:58:37;;;;;;;8.57;5.20;;;12.40;99.90;;;;;;5031028;28;20197;-65
2023/08/30 06:01:06;;;;;;;9.13;5.50;;;12.40;99.90;;;;;;5033272;28;20193;-65
2023/08/30 06:03:31;;;;;;;9.50;5.60;;;12.40;99.90;;;;;;5044374;28;20424;-65
2023/08/30 06:05:57;;;;;;;10.60;6.47;;;12.40;99.90;;;;;;5044837;28;20525;-64
2023/08/30 06:08:23;;;;;;;10.10;5.30;;;12.40;99.90;;;;;;5044825;28;20580;-64
2023/08/30 06:10:48;;;;;;;10.10;5.87;;;12.50;99.90;;;;;;5024908;28;20510;-64
2023/08/30 06:13:14;;;;;;;10.37;5.70;;;12.50;99.90;;;;;;5039870;28;20620;-64
2023/08/30 06:15:39;;;;;;;11.30;5.97;;;12.50;99.90;;;;;;5048850;28;20182;-64
2023/08/30 06:18:05;;;;;;;8.73;5.53;;;12.40;99.90;;;;;;5052622;28;20553;-64
2023/08/30 06:20:31;;;;;;;9.90;6.07;;;12.50;99.90;;;;;;5051233;28;20231;-64
2023/08/30 06:22:58;;;;;;;9.00;5.77;;;12.40;99.90;;;;;;5030328;28;20206;-64
2023/08/30 06:25:24;;;;;;;9.57;5.80;;;12.50;99.90;;;;;;5036027;28;20237;-64
2023/08/30 06:27:58;;;;;;;13.40;5.40;;;12.50;99.90;;;;;;5030724;28;20472;-64
2023/08/30 06:30:25;;;;;;;8.73;5.83;;;12.50;99.90;;;;;;5031203;28;20212;-64
2023/08/30 06:32:51;;;;;;;9.17;5.37;;;12.60;99.90;;;;;;5025686;28;20437;-64
2023/08/30 06:35:17;;;;;;;9.50;5.27;;;12.60;99.90;;;;;;5026005;28;20428;-64
2023/08/30 06:37:42;;;;;;;8.93;5.37;;;12.60;99.90;;;;;;5038831;28;20189;-64
2023/08/30 06:40:08;;;;;;;10.57;5.10;;;12.70;99.90;;;;;;5022498;28;20208;-64
2023/08/30 06:42:34;;;;;;;10.83;6.00;;;12.70;99.90;;;;;;5029629;28;20232;-64
2023/08/30 06:45:00;;;;;;;10.77;5.70;;;12.80;99.90;;;;;;5036543;28;20863;-64
2023/08/30 06:47:26;;;;;;;8.90;5.50;;;12.90;99.90;;;;;;5051662;28;20178;-64
2023/08/30 06:49:51;;;;;;;6.70;4.77;;;12.80;99.90;;;;;;5045525;28;20998;-64
2023/08/30 06:52:17;;;;;;;8.57;4.90;;;12.80;99.90;;;;;;5039473;28;20569;-64
2023/08/30 06:54:42;;;;;;;10.30;5.50;;;12.80;99.90;;;;;;5036545;28;20260;-64
2023/08/30 06:57:08;;;;;;;11.47;6.00;;;12.80;99.90;;;;;;5019899;28;20187;-65
2023/08/30 06:59:34;;;;;;;8.53;5.57;;;12.90;99.90;;;;;;5036952;28;20186;-65
2023/08/30 07:02:00;;;;;;;9.00;5.53;;;12.90;99.90;;;;;;5031635;28;20436;-65
2023/08/30 07:04:25;;;;;;;7.93;4.70;;;12.90;99.90;;;;;;5042067;28;20611;-65
2023/08/30 07:06:51;;;;;;;6.70;4.37;;;13.00;99.90;;;;;;5036656;28;20186;-65
2023/08/30 07:09:17;;;;;;;11.30;4.97;;;13.00;99.90;;;;;;5038217;28;20220;-65
2023/08/30 07:11:47;;;;;;;7.03;4.63;;;13.00;99.90;;;;;;5034039;28;20618;-65
2023/08/30 07:14:14;;;;;;;6.00;4.47;;;13.00;99.90;;;;;;5037513;28;20576;-65
2023/08/30 07:16:40;;;;;;;10.93;5.10;;;13.10;99.90;;;;;;5051034;28;20428;-65
2023/08/30 07:19:06;;;;;;;7.53;5.20;;;13.10;99.90;;;;;;5036921;28;20479;-65
2023/08/30 07:21:31;;;;;;;10.00;5.20;;;13.10;99.90;;;;;;5033426;28;20468;-65
2023/08/30 07:23:57;;;;;;;8.30;5.53;;;13.20;99.90;;;;;;5036915;28;20216;-65
2023/08/30 07:26:23;;;;;;;7.43;4.27;;;13.20;99.90;;;;;;5029010;28;20202;-65
2023/08/30 07:28:49;;;;;;;7.03;4.57;;;13.30;99.90;;;;;;5029912;28;20474;-65
2023/08/30 07:31:18;;;;;;;7.13;3.93;;;13.20;99.90;;;;;;5030923;28;20232;-65
2023/08/30 07:33:44;;;;;;;7.17;4.50;;;13.20;99.90;;;;;;5039041;28;20182;-65
2023/08/30 07:36:09;;;;;;;7.83;4.47;;;13.20;99.90;;;;;;5045045;28;20486;-65
2023/08/30 07:38:35;;;;;;;6.10;4.70;;;13.20;99.90;;;;;;5048031;28;20424;-65
2023/08/30 07:41:01;;;;;;;8.57;5.33;;;13.30;99.90;;;;;;5032672;28;20202;-65
2023/08/30 07:43:27;;;;;;;9.20;5.50;;;13.40;99.90;;;;;;5029211;28;20615;-65
2023/08/30 07:45:52;;;;;;;7.83;5.10;;;13.30;99.90;;;;;;5046233;28;20473;-65
2023/08/30 07:48:18;;;;;;;8.63;5.57;;;13.40;99.90;;;;;;5039114;28;20281;-65
2023/08/30 07:50:44;;;;;;;7.20;4.50;;;13.50;99.90;;;;;;5035079;28;20631;-65
2023/08/30 07:53:10;;;;;;;9.00;4.47;;;13.50;99.90;;;;;;5038979;28;20201;-65
2023/08/30 07:55:36;;;;;;;8.60;5.37;;;13.50;99.90;;;;;;5035832;28;20213;-65
2023/08/30 07:58:02;;;;;;;7.50;4.80;;;13.60;99.90;;;;;;5034356;28;20921;-65
2023/08/30 08:00:29;;;;;;;7.43;4.80;;;13.70;99.90;;;;;;5034929;28;20429;-65
2023/08/30 08:02:54;;;;;;;11.27;5.67;;;13.80;99.90;;;;;;5035238;28;20502;-65
2023/08/30 08:05:20;;;;;;;15.40;4.90;;;13.80;99.90;;;;;;5043638;28;20555;-65
2023/08/30 08:07:46;;;;;;;8.30;5.23;;;13.90;99.90;;;;;;5050549;28;20196;-65
2023/08/30 08:10:11;;;;;;;6.47;4.40;;;13.90;99.90;;;;;;5050958;28;20260;-65
2023/08/30 08:12:37;;;;;;;8.37;5.10;;;14.10;99.90;;;;;;5046252;28;20647;-65
2023/08/30 08:15:03;;;;;;;9.40;5.10;;;14.20;99.90;;;;;;5030525;28;20182;-65
2023/08/30 08:17:29;;;;;;;6.93;4.70;;;14.40;99.90;;;;;;5049914;28;20256;-65
2023/08/30 08:19:54;;;;;;;8.90;4.90;;;14.50;99.90;;;;;;5050758;28;20416;-65
2023/08/30 08:22:20;;;;;;;6.00;3.80;;;14.50;99.90;;;;;;5050321;28;20578;-65
2023/08/30 08:24:46;;;;;;;7.27;4.73;;;14.60;99.90;;;;;;5033939;28;20197;-65
2023/08/30 08:27:12;;;;;;;7.50;4.40;;;14.70;99.90;;;;;;5031403;28;20182;-65
2023/08/30 08:29:38;;;;;;;8.20;4.60;;;15.00;99.90;;;;;;5043295;28;20190;-65
2023/08/30 08:32:04;;;;;;;8.03;4.33;;;15.00;99.90;;;;;;5029297;28;20429;-65
2023/08/30 08:34:29;;;;;;;5.90;4.13;;;15.10;99.90;;;;;;5029325;28;20201;-65
2023/08/30 08:36:55;;;;;;;8.00;5.30;;;15.10;99.90;;;;;;5038512;28;20679;-65
2023/08/30 08:39:20;;;;;;;5.37;3.87;;;15.20;99.90;;;;;;5044388;28;20179;-64
2023/08/30 08:41:46;;;;;;;13.37;4.20;;;15.30;99.90;;;;;;5050322;28;20266;-64
2023/08/30 08:44:13;;;;;;;7.80;4.33;;;15.40;99.90;;;;;;5039701;28;20205;-64
2023/08/30 08:46:40;;;;;;;6.50;4.50;;;15.40;99.90;;;;;;5037113;28;20205;-64
2023/08/30 08:49:09;;;;;;;7.07;3.93;;;15.50;99.90;;;;;;5047123;28;20420;-64
2023/08/30 08:51:35;;;;;;;6.67;3.97;;;15.80;99.90;;;;;;5027831;28;20423;-64
2023/08/30 08:54:03;;;;;;;5.03;3.30;;;15.70;99.90;;;;;;5032358;28;20889;-64
2023/08/30 08:56:30;;;;;;;8.67;3.60;;;15.70;99.90;;;;;;5033149;28;20440;-64
2023/08/30 08:58:56;;;;;;;4.90;3.20;;;16.10;99.90;;;;;;5042785;28;20527;-65
2023/08/30 09:01:23;;;;;;;4.40;2.90;;;16.20;99.90;;;;;;5041840;28;20508;-64
2023/08/30 09:03:50;;;;;;;5.90;3.40;;;16.50;99.90;;;;;;5045821;28;20791;-64
2023/08/30 09:06:16;;;;;;;4.87;2.83;;;16.50;99.90;;;;;;5052124;28;21133;-64
2023/08/30 09:08:41;;;;;;;11.37;3.30;;;16.60;99.90;;;;;;5039773;28;20523;-64
2023/08/30 09:11:07;;;;;;;4.10;2.67;;;16.80;99.90;;;;;;5041125;28;21121;-64
2023/08/30 09:13:33;;;;;;;5.10;3.20;;;17.30;99.90;;;;;;5039948;28;20193;-64
2023/08/30 09:15:59;;;;;;;4.50;2.30;;;17.60;99.90;;;;;;5040724;28;20192;-64
2023/08/30 09:18:27;;;;;;;3.67;2.50;;;18.30;99.90;;;;;;5034533;28;20186;-64
2023/08/30 09:21:06;;;;;;;4.70;2.43;;;18.50;99.90;;;;;;5036298;28;20433;-64
2023/08/30 09:23:33;;;;;;;3.13;2.10;;;18.30;99.90;;;;;;5047274;28;20498;-64
2023/08/30 09:25:59;;;;;;;3.87;2.23;;;18.60;99.90;;;;;;5039748;28;20895;-64
2023/08/30 09:28:25;;;;;;;5.87;2.43;;;18.80;99.90;;;;;;5037297;28;20779;-64
2023/08/30 09:30:52;;;;;;;5.17;2.10;;;19.10;99.90;;;;;;5045621;28;20483;-65
2023/08/30 09:33:30;;;;;;;4.10;2.43;;;19.40;99.90;;;;;;5046770;28;20182;-65
2023/08/30 09:35:56;;;;;;;6.00;2.23;;;19.50;99.90;;;;;;5036491;28;20431;-65
2023/08/30 09:38:22;;;;;;;4.63;2.00;;;19.40;99.90;;;;;;5040330;28;20432;-65
2023/08/30 09:40:47;;;;;;;4.33;2.27;;;19.60;99.90;;;;;;5047649;28;20201;-65
2023/08/30 09:43:14;;;;;;;2.60;1.50;;;19.70;99.90;;;;;;5049698;28;20188;-65
2023/08/30 09:45:41;;;;;;;4.07;2.13;;;19.70;99.90;;;;;;5044764;28;20209;-65
2023/08/30 09:48:07;;;;;;;2.93;1.80;;;19.60;99.90;;;;;;5041475;28;20464;-65
2023/08/30 09:50:36;;;;;;;2.73;1.73;;;19.70;99.90;;;;;;5043654;28;20463;-65
2023/08/30 09:53:09;;;;;;;2.60;1.33;;;19.70;99.90;;;;;;5046577;28;20587;-65
2023/08/30 09:55:35;;;;;;;2.83;1.50;;;19.60;99.90;;;;;;5046094;28;20427;-65
2023/08/30 09:58:04;;;;;;;2.50;1.53;;;19.60;99.90;;;;;;5051954;28;20444;-65
2023/08/30 10:00:31;;;;;;;6.17;1.77;;;19.70;99.90;;;;;;5038107;28;20218;-65
2023/08/30 10:02:58;;;;;;;9.47;2.67;;;19.60;99.90;;;;;;5040493;28;20431;-65
2023/08/30 10:05:25;;;;;;;4.83;1.87;;;19.30;99.90;;;;;;5052201;28;20502;-64
2023/08/30 10:07:52;;;;;;;3.50;2.10;;;19.20;99.90;;;;;;5044392;28;20424;-64
2023/08/30 10:10:20;;;;;;;4.50;1.77;;;19.10;99.90;;;;;;5039341;28;20429;-64
2023/08/30 10:12:46;;;;;;;2.10;1.50;;;19.10;99.90;;;;;;5034187;28;20437;-64
2023/08/30 10:15:12;;;;;;;4.00;2.00;;;18.80;99.90;;;;;;5046482;28;20420;-64
2023/08/30 10:17:44;;;;;;;3.73;2.03;;;18.80;99.90;;;;;;5051522;28;20482;-64
2023/08/30 10:20:11;;;;;;;4.20;2.00;;;18.90;99.90;;;;;;5051380;28;20685;-64
2023/08/30 10:22:39;;;;;;;2.10;1.37;;;18.70;99.90;;;;;;5038459;28;20448;-66
2023/08/30 10:25:20;;;;;;;3.20;2.00;;;18.90;99.90;;;;;;5037116;28;20515;-64
2023/08/30 10:27:49;;;;;;;12.00;1.63;;;19.10;99.90;;;;;;5032363;28;20421;-66
2023/08/30 10:30:17;;;;;;;3.20;2.07;;;19.20;99.90;;;;;;5037315;28;20829;-64
2023/08/30 10:32:44;;;;;;;3.83;1.90;;;19.20;99.90;;;;;;5031347;28;20473;-64
2023/08/30 10:35:14;;;;;;;3.10;2.20;;;19.20;99.90;;;;;;5040892;28;20435;-64
2023/08/30 10:37:41;;;;;;;3.87;2.00;;;19.30;99.90;;;;;;5049907;28;20436;-64
2023/08/30 10:40:07;;;;;;;10.03;2.93;;;19.20;99.90;;;;;;5050849;28;20778;-64
2023/08/30 10:42:34;;;;;;;3.00;1.70;;;19.30;99.90;;;;;;5039876;28;20437;-65
2023/08/30 10:45:06;;;;;;;3.43;2.10;;;19.20;99.90;;;;;;5037843;28;20474;-64
2023/08/30 10:47:37;;;;;;;4.60;1.97;;;18.90;99.90;;;;;;5051673;28;20455;-64
2023/08/30 10:50:08;;;;;;;3.37;1.70;;;19.30;99.90;;;;;;5052097;28;20470;-64
2023/08/30 10:52:33;;;;;;;3.23;2.30;;;19.60;99.90;;;;;;5048737;28;20778;-64
2023/08/30 10:55:12;;;;;;;2.97;1.70;;;19.30;99.90;;;;;;5036878;28;20440;-64
2023/08/30 10:57:43;;;;;;;3.60;2.57;;;19.50;99.90;;;;;;5036772;28;20345;-65
2023/08/30 11:00:19;;;;;;;2.70;1.40;;;19.40;99.90;;;;;;5050315;28;20416;-64
2023/08/30 11:02:50;;;;;;;3.43;1.97;;;19.70;99.90;;;;;;5034375;28;20494;-64
2023/08/30 11:05:16;;;;;;;3.40;2.00;;;19.70;99.30;;;;;;5031635;28;20461;-64
2023/08/30 11:07:43;;;;;;;4.67;1.93;;;19.90;99.30;;;;;;5036739;28;20710;-65
2023/08/30 11:10:09;;;;;;;2.70;1.33;;;19.80;98.80;;;;;;5028254;28;20444;-64
2023/08/30 11:12:35;;;;;;;2.63;1.57;;;20.10;99.10;;;;;;5033036;28;20435;-65
2023/08/30 11:15:01;;;;;;;6.13;2.07;;;20.00;99.50;;;;;;5043877;28;20423;-65
2023/08/30 11:17:28;;;;;;;3.33;2.17;;;20.10;99.50;;;;;;5036804;28;20900;-65
2023/08/30 11:20:13;;;;;;;3.73;2.10;;;20.20;98.50;;;;;;5050292;28;20424;-65
2023/08/30 11:22:44;;;;;;;3.67;1.80;;;19.90;99.50;;;;;;5048908;28;20459;-66
2023/08/30 11:25:11;;;;;;;4.30;2.10;;;20.40;99.40;;;;;;5031667;28;20464;-66
2023/08/30 11:27:38;;;;;;;2.83;1.40;;;20.40;99.40;;;;;;5031272;28;20417;-66
2023/08/30 11:30:05;;;;;;;2.87;1.80;;;20.70;99.90;;;;;;5041099;28;20427;-66
2023/08/30 11:32:39;;;;;;;4.43;2.10;;;21.10;98.60;;;;;;5051055;28;20442;-66
2023/08/30 11:35:06;;;;;;;4.70;1.63;;;21.20;98.10;;;;;;5037045;28;20433;-66
2023/08/30 11:37:32;;;;;;;2.47;1.33;;;20.70;98.30;;;;;;5036039;28;20420;-66
2023/08/30 11:39:59;;;;;;;3.03;1.70;;;20.30;98.50;;;;;;5050007;28;20432;-66
2023/08/30 11:42:26;;;;;;;3.63;1.50;;;20.00;99.80;;;;;;5050656;28;20420;-66
2023/08/30 11:44:52;;;;;;;3.00;1.40;;;19.30;99.50;;;;;;5038217;28;20481;-66
2023/08/30 11:47:23;;;;;;;2.80;1.23;;;18.30;99.90;;;;;;5038302;28;20543;-65
2023/08/30 11:49:52;;;;;;;1.50;0.90;;;17.50;99.90;;;;;;5035348;28;20428;-65
2023/08/30 11:52:19;;;;;;;1.93;0.80;;;17.10;99.90;;;;;;5051004;28;20420;-65
2023/08/30 11:54:49;;;;;;;2.27;1.20;;;16.60;99.90;;;;;;5033987;28;20416;-65
2023/08/30 11:57:15;;;;;;;5.40;1.53;;;16.40;99.90;;;;;;5043411;28;20431;-65
2023/08/30 11:59:41;;;;;;;3.67;1.50;;;16.20;99.90;;;;;;5042115;28;20437;-65
2023/08/30 12:02:13;;;;;;;2.93;1.83;;;16.10;99.90;;;;;;5032333;28;20186;-66
2023/08/30 12:04:43;;;;;;;2.60;1.57;;;15.70;99.90;;;;;;5035112;28;20214;-66
2023/08/30 12:07:09;;;;;;;2.03;1.30;;;15.30;99.90;;;;;;5033434;28;20608;-66
2023/08/30 12:09:34;;;;;;;3.40;2.07;;;15.10;99.90;;;;;;5051014;28;20990;-66
2023/08/30 12:12:12;;;;;;;3.10;2.00;;;15.00;99.90;;;;;;5050364;28;20205;-66
2023/08/30 12:14:38;;;;;;;2.63;1.60;;;14.90;99.90;;;;;;5036083;28;20186;-66
2023/08/30 12:17:05;;;;;;;2.83;1.97;;;15.00;99.90;;;;;;5034612;28;20487;-66
2023/08/30 12:19:32;;;;;;;3.20;2.00;;;15.10;99.90;;;;;;5042264;28;20185;-66
2023/08/30 12:22:04;;;;;;;2.33;1.70;;;15.30;99.90;;;;;;5054545;28;20412;-66
2023/08/30 12:24:48;;;;;;;5.90;1.73;;;15.20;99.90;;;;;;5054717;28;20420;-66
2023/08/30 12:27:14;;;;;;;3.10;2.37;;;15.30;99.90;;;;;;5028807;28;20438;-66
2023/08/30 12:29:40;;;;;;;4.97;2.30;;;15.30;99.90;;;;;;5037242;28;20405;-66
2023/08/30 12:32:07;;;;;;;3.93;1.77;;;15.40;99.90;;;;;;5040231;28;20185;-66
2023/08/30 12:34:33;;;;;;;4.90;1.67;;;15.30;99.90;;;;;;5041244;28;20179;-66
2023/08/30 12:36:59;;;;;;;3.80;2.37;;;15.30;99.90;;;;;;5039019;28;20432;-63
2023/08/30 12:39:25;;;;;;;2.53;2.03;;;15.20;99.90;;;;;;5048415;28;20715;-63
2023/08/30 12:41:50;;;;;;;6.50;2.13;;;15.00;99.90;;;;;;5054963;28;20193;-63